Time;durP1;ratioP1;P1;durP2;ratioP2;P2;SDS_P1;SDS_P2;PMS_P1;PMS_P2;Temp;Humidity;BMP_temperature;BMP_pressure;BME280_temperature;BME280_humidity;BME280_pressure;Samples;Min_cycle;Max_cycle;Signal;HPM_P1;HPM_P2
2023/04/30 00:01:28;;;;;;;24.95;20.60;;;;;;;;;;10090534;28;20100;-72
2023/04/30 00:06:22;;;;;;;26.77;21.08;;;;;;;;;;10090760;28;20052;-72
2023/04/30 00:11:18;;;;;;;22.55;20.13;;;;;;;;;;10092547;28;20099;-71
2023/04/30 00:16:11;;;;;;;21.65;19.45;;;;;;;;;;10074320;28;20464;-72
2023/04/30 00:21:05;;;;;;;22.17;20.02;;;;;;;;;;10098533;28;20120;-71
2023/04/30 00:25:59;;;;;;;20.15;18.15;;;;;;;;;;10086992;28;20571;-71
2023/04/30 00:30:53;;;;;;;22.60;18.98;;;;;;;;;;10083640;28;20065;-71
2023/04/30 00:35:46;;;;;;;23.80;20.02;;;;;;;;;;10086635;28;20056;-71
2023/04/30 00:40:40;;;;;;;20.80;18.55;;;;;;;;;;10070454;28;20080;-72
2023/04/30 00:45:34;;;;;;;16.40;14.95;;;;;;;;;;10077794;28;20053;-71
2023/04/30 00:50:29;;;;;;;16.02;14.40;;;;;;;;;;10080696;28;20045;-71
2023/04/30 00:55:22;;;;;;;17.98;16.17;;;;;;;;;;10054611;28;20060;-73
2023/04/30 01:00:15;;;;;;;18.73;16.92;;;;;;;;;;10059654;28;20083;-71
2023/04/30 01:05:09;;;;;;;21.48;19.42;;;;;;;;;;10082087;28;20496;-72
2023/04/30 01:10:03;;;;;;;18.90;17.15;;;;;;;;;;10073028;28;20052;-72
2023/04/30 01:15:05;;;;;;;19.90;17.88;;;;;;;;;;10060122;28;20057;-71
2023/04/30 01:19:59;;;;;;;19.92;18.05;;;;;;;;;;10053739;28;20042;-71
2023/04/30 01:25:11;;;;;;;18.80;16.98;;;;;;;;;;10077469;28;20057;-71
2023/04/30 01:30:05;;;;;;;17.98;16.27;;;;;;;;;;10081533;28;20092;-71
2023/04/30 01:34:58;;;;;;;17.88;16.05;;;;;;;;;;10080042;28;20072;-71
2023/04/30 01:39:53;;;;;;;21.08;17.42;;;;;;;;;;10086937;28;20073;-71
2023/04/30 01:45:04;;;;;;;19.75;17.70;;;;;;;;;;10060964;28;20508;-74
2023/04/30 01:49:59;;;;;;;20.98;18.75;;;;;;;;;;10106580;28;20110;-71
2023/04/30 01:54:58;;;;;;;19.38;17.25;;;;;;;;;;10117910;28;20078;-72
2023/04/30 01:59:51;;;;;;;18.90;17.15;;;;;;;;;;10140627;28;20582;-73
2023/04/30 02:04:44;;;;;;;21.65;18.90;;;;;;;;;;10119588;28;20048;-74
2023/04/30 02:09:38;;;;;;;20.25;18.17;;;;;;;;;;10103505;28;20048;-73
2023/04/30 02:14:32;;;;;;;22.02;19.80;;;;;;;;;;10135623;28;20075;-73
2023/04/30 02:19:25;;;;;;;21.45;19.08;;;;;;;;;;10127423;28;20068;-72
2023/04/30 02:24:19;;;;;;;16.50;14.77;;;;;;;;;;10136481;28;20052;-72
2023/04/30 02:29:13;;;;;;;16.20;14.68;;;;;;;;;;10094529;28;20508;-73
2023/04/30 02:34:09;;;;;;;18.80;17.02;;;;;;;;;;10119244;28;20061;-73
2023/04/30 02:39:03;;;;;;;16.45;14.82;;;;;;;;;;10112350;28;20075;-73
2023/04/30 02:43:57;;;;;;;18.85;17.08;;;;;;;;;;10126838;28;20045;-72
2023/04/30 02:48:50;;;;;;;17.35;15.75;;;;;;;;;;10110602;28;20072;-72
2023/04/30 02:53:43;;;;;;;19.83;17.83;;;;;;;;;;10075053;28;20100;-73
2023/04/30 02:58:36;;;;;;;19.45;15.60;;;;;;;;;;10073236;28;20138;-73
2023/04/30 03:03:29;;;;;;;18.10;16.40;;;;;;;;;;10057922;28;20417;-72
2023/04/30 03:08:24;;;;;;;19.67;17.35;;;;;;;;;;10081965;28;20111;-73
2023/04/30 03:13:18;;;;;;;21.77;19.48;;;;;;;;;;10071055;28;20049;-71
2023/04/30 03:18:11;;;;;;;22.05;19.60;;;;;;;;;;10073543;28;20049;-70
2023/04/30 03:23:04;;;;;;;22.90;20.52;;;;;;;;;;10061444;28;20512;-73
2023/04/30 03:27:58;;;;;;;22.10;19.55;;;;;;;;;;10074602;28;20057;-73
2023/04/30 03:32:52;;;;;;;20.92;18.73;;;;;;;;;;10056948;28;20053;-73
2023/04/30 03:37:45;;;;;;;21.70;18.90;;;;;;;;;;10079865;28;20496;-72
2023/04/30 03:42:39;;;;;;;21.25;18.80;;;;;;;;;;10070604;28;20497;-73
2023/04/30 03:47:32;;;;;;;24.95;19.83;;;;;;;;;;10072138;28;20144;-72
2023/04/30 03:52:26;;;;;;;21.42;19.13;;;;;;;;;;10109751;28;20139;-72
2023/04/30 03:57:19;;;;;;;25.55;20.77;;;;;;;;;;10112572;28;20048;-72
2023/04/30 04:02:12;;;;;;;25.50;22.02;;;;;;;;;;10107664;28;20080;-72
2023/04/30 04:07:06;;;;;;;34.13;23.27;;;;;;;;;;10095730;28;20051;-73
2023/04/30 04:12:00;;;;;;;34.75;24.27;;;;;;;;;;10107277;28;20115;-73
2023/04/30 04:16:53;;;;;;;28.48;22.38;;;;;;;;;;10102663;28;20110;-72
2023/04/30 04:21:46;;;;;;;23.08;20.65;;;;;;;;;;10101599;28;20045;-73
2023/04/30 04:26:41;;;;;;;29.70;20.98;;;;;;;;;;10077232;28;20055;-73
2023/04/30 04:31:37;;;;;;;29.08;21.50;;;;;;;;;;10093839;28;20049;-73
2023/04/30 04:36:33;;;;;;;29.08;20.63;;;;;;;;;;10126733;28;20094;-73
2023/04/30 04:41:25;;;;;;;24.38;19.42;;;;;;;;;;10107346;28;20072;-73
2023/04/30 04:46:19;;;;;;;32.08;22.48;;;;;;;;;;10095431;28;20049;-71
2023/04/30 04:51:13;;;;;;;26.10;20.00;;;;;;;;;;10116562;28;20088;-72
2023/04/30 04:56:07;;;;;;;24.55;21.63;;;;;;;;;;10129319;28;20040;-71
2023/04/30 05:01:00;;;;;;;35.10;23.13;;;;;;;;;;10163541;28;20083;-71
2023/04/30 05:05:53;;;;;;;25.20;22.27;;;;;;;;;;10135500;28;20139;-71
2023/04/30 05:10:47;;;;;;;28.77;20.85;;;;;;;;;;10128100;28;20488;-70
2023/04/30 05:15:39;;;;;;;26.88;21.23;;;;;;;;;;10103268;28;20047;-70
2023/04/30 05:20:34;;;;;;;30.98;22.13;;;;;;;;;;10124139;28;20060;-69
2023/04/30 05:25:28;;;;;;;29.73;20.77;;;;;;;;;;10151447;28;20087;-71
2023/04/30 05:30:23;;;;;;;27.60;22.40;;;;;;;;;;10136041;28;20044;-70
2023/04/30 05:35:17;;;;;;;32.47;23.10;;;;;;;;;;10165422;28;20064;-70
2023/04/30 05:40:12;;;;;;;24.40;20.67;;;;;;;;;;10143902;28;20137;-69
2023/04/30 05:45:07;;;;;;;30.17;21.83;;;;;;;;;;10142518;28;20048;-69
2023/04/30 05:50:01;;;;;;;28.35;21.38;;;;;;;;;;10141584;28;20060;-68
2023/04/30 05:54:54;;;;;;;33.97;25.95;;;;;;;;;;10155098;28;20053;-68
2023/04/30 05:59:47;;;;;;;27.63;22.05;;;;;;;;;;10154918;28;20051;-68
2023/04/30 06:04:42;;;;;;;23.77;18.63;;;;;;;;;;10148564;28;20115;-69
2023/04/30 06:09:36;;;;;;;26.83;20.25;;;;;;;;;;10159398;28;20048;-67
2023/04/30 06:14:30;;;;;;;25.50;19.40;;;;;;;;;;10138358;28;20427;-71
2023/04/30 06:19:23;;;;;;;24.30;19.73;;;;;;;;;;10150761;28;20087;-71
2023/04/30 06:24:16;;;;;;;23.60;18.83;;;;;;;;;;10154976;28;20052;-69
2023/04/30 06:29:11;;;;;;;24.88;19.83;;;;;;;;;;10140350;28;20140;-72
2023/04/30 06:34:05;;;;;;;26.17;20.17;;;;;;;;;;10147243;28;20048;-71
2023/04/30 06:38:58;;;;;;;26.13;19.15;;;;;;;;;;10135083;28;20487;-71
2023/04/30 06:43:52;;;;;;;25.10;19.92;;;;;;;;;;10134204;28;20049;-72
2023/04/30 06:48:45;;;;;;;22.65;18.08;;;;;;;;;;10114634;28;20057;-71
2023/04/30 06:53:40;;;;;;;23.75;18.52;;;;;;;;;;10152357;28;20069;-72
2023/04/30 06:58:33;;;;;;;22.40;18.80;;;;;;;;;;10147243;28;20578;-70
2023/04/30 07:03:27;;;;;;;22.00;17.20;;;;;;;;;;10148234;28;20083;-71
2023/04/30 07:08:21;;;;;;;20.40;17.05;;;;;;;;;;10146561;28;20044;-70
2023/04/30 07:13:15;;;;;;;26.75;17.98;;;;;;;;;;10135757;28;20053;-70
2023/04/30 07:18:09;;;;;;;20.95;17.50;;;;;;;;;;10139388;28;20412;-72
2023/04/30 07:23:03;;;;;;;20.13;16.40;;;;;;;;;;10148574;28;20411;-72
2023/04/30 07:27:56;;;;;;;18.90;15.98;;;;;;;;;;10147300;28;20059;-74
2023/04/30 07:32:51;;;;;;;21.50;16.30;;;;;;;;;;10110884;28;20056;-71
2023/04/30 07:37:44;;;;;;;19.83;16.45;;;;;;;;;;10145296;28;20051;-71
2023/04/30 07:42:38;;;;;;;19.50;16.58;;;;;;;;;;10123974;28;20519;-72
2023/04/30 07:47:32;;;;;;;21.27;16.30;;;;;;;;;;10144480;28;20061;-71
2023/04/30 07:52:25;;;;;;;17.80;14.70;;;;;;;;;;10108657;28;20377;-72
2023/04/30 07:57:18;;;;;;;17.60;14.75;;;;;;;;;;10104989;28;20080;-74
2023/04/30 08:02:11;;;;;;;20.67;15.18;;;;;;;;;;10109268;28;20065;-74
2023/04/30 08:07:04;;;;;;;17.23;13.15;;;;;;;;;;10111378;28;20113;-74
2023/04/30 08:11:58;;;;;;;15.80;14.18;;;;;;;;;;10096208;28;20057;-76
2023/04/30 08:16:52;;;;;;;16.73;12.70;;;;;;;;;;10086597;28;20053;-74
2023/04/30 08:21:46;;;;;;;16.50;13.90;;;;;;;;;;10101799;28;20053;-75
2023/04/30 08:26:39;;;;;;;16.35;14.63;;;;;;;;;;9984698;28;20128;-76
2023/04/30 08:31:34;;;;;;;19.40;12.50;;;;;;;;;;9977554;28;20433;-75
2023/04/30 08:36:27;;;;;;;16.15;13.80;;;;;;;;;;9970114;28;20477;-75
2023/04/30 08:41:25;;;;;;;14.48;13.05;;;;;;;;;;9972612;28;20117;-76
2023/04/30 08:46:22;;;;;;;18.48;13.15;;;;;;;;;;9965531;28;20659;-75
2023/04/30 08:51:16;;;;;;;19.95;13.57;;;;;;;;;;10013890;28;20057;-75
2023/04/30 08:56:10;;;;;;;15.85;14.10;;;;;;;;;;10046788;28;20546;-76
2023/04/30 09:01:05;;;;;;;18.38;13.55;;;;;;;;;;10042312;28;20059;-75
2023/04/30 09:05:59;;;;;;;14.77;13.27;;;;;;;;;;10043245;28;20053;-75
2023/04/30 09:10:52;;;;;;;17.63;14.70;;;;;;;;;;10051036;28;20162;-74
2023/04/30 09:15:51;;;;;;;15.07;13.50;;;;;;;;;;10052080;28;20050;-75
2023/04/30 09:21:00;;;;;;;14.30;12.15;;;;;;;;;;10051720;28;20054;-74
2023/04/30 09:25:53;;;;;;;15.70;14.10;;;;;;;;;;10050346;28;20048;-74
2023/04/30 09:30:47;;;;;;;13.73;10.52;;;;;;;;;;10048744;28;20045;-74
2023/04/30 09:35:41;;;;;;;14.38;11.32;;;;;;;;;;10036901;28;20053;-82
2023/04/30 09:40:40;;;;;;;16.15;11.75;;;;;;;;;;10042987;28;20052;-82
2023/04/30 09:45:41;;;;;;;14.60;11.77;;;;;;;;;;10048078;28;20049;-86
2023/04/30 09:50:39;;;;;;;15.18;9.98;;;;;;;;;;10058990;28;20061;-74
2023/04/30 09:55:36;;;;;;;10.07;8.00;;;;;;;;;;10035395;28;20112;-75
2023/04/30 10:00:29;;;;;;;6.88;6.18;;;;;;;;;;10036437;28;20493;-76
2023/04/30 10:05:22;;;;;;;7.90;5.90;;;;;;;;;;10044655;28;20455;-79
2023/04/30 10:10:16;;;;;;;10.02;6.95;;;;;;;;;;10038994;28;20100;-76
2023/04/30 10:15:11;;;;;;;6.70;5.35;;;;;;;;;;10028012;28;20049;-76
2023/04/30 10:20:07;;;;;;;4.65;4.18;;;;;;;;;;10036987;28;20054;-76
2023/04/30 10:25:01;;;;;;;8.82;5.90;;;;;;;;;;10035438;28;20050;-76
2023/04/30 10:29:55;;;;;;;9.13;5.80;;;;;;;;;;10036614;28;20470;-78
2023/04/30 10:34:54;;;;;;;7.07;6.07;;;;;;;;;;10045869;28;20088;-79
2023/04/30 10:39:48;;;;;;;7.97;4.95;;;;;;;;;;10048450;28;20459;-79
2023/04/30 10:44:41;;;;;;;6.95;4.78;;;;;;;;;;10039142;28;20511;-78
2023/04/30 10:49:35;;;;;;;7.55;4.78;;;;;;;;;;10058904;28;20088;-74
2023/04/30 10:54:34;;;;;;;14.48;5.15;;;;;;;;;;10045021;28;20096;-78
2023/04/30 10:59:33;;;;;;;5.82;5.10;;;;;;;;;;10031736;28;20054;-79
2023/04/30 11:04:27;;;;;;;6.95;5.93;;;;;;;;;;10056352;28;20409;-80
2023/04/30 11:09:42;;;;;;;8.38;6.07;;;;;;;;;;10033928;28;20069;-76
2023/04/30 11:15:03;;;;;;;10.73;5.40;;;;;;;;;;10041159;28;20447;-77
2023/04/30 11:19:59;;;;;;;8.05;6.65;;;;;;;;;;10048176;28;20058;-78
2023/04/30 11:24:54;;;;;;;7.22;5.95;;;;;;;;;;10058039;28;20045;-76
2023/04/30 11:29:47;;;;;;;9.20;6.05;;;;;;;;;;10028475;28;20475;-76
2023/04/30 11:34:43;;;;;;;7.05;6.35;;;;;;;;;;10041448;28;20049;-78
2023/04/30 11:39:37;;;;;;;7.15;6.45;;;;;;;;;;10039242;28;20064;-76
2023/04/30 11:44:32;;;;;;;8.48;6.53;;;;;;;;;;10046043;28;20132;-73
2023/04/30 11:49:25;;;;;;;7.03;6.03;;;;;;;;;;10036663;28;20125;-75
2023/04/30 11:54:19;;;;;;;8.90;6.97;;;;;;;;;;10065150;28;20108;-75
2023/04/30 11:59:12;;;;;;;8.30;6.10;;;;;;;;;;10065399;28;20053;-72
2023/04/30 12:04:06;;;;;;;7.65;6.43;;;;;;;;;;10052673;28;20046;-72
2023/04/30 12:09:07;;;;;;;6.75;6.15;;;;;;;;;;10052945;28;20099;-73
2023/04/30 12:14:11;;;;;;;10.27;5.60;;;;;;;;;;10051487;28;20053;-73
2023/04/30 12:19:04;;;;;;;8.25;5.32;;;;;;;;;;10035514;28;20097;-73
2023/04/30 12:23:58;;;;;;;13.35;5.82;;;;;;;;;;10034567;28;20049;-73
2023/04/30 12:28:54;;;;;;;10.50;5.88;;;;;;;;;;10047781;28;20065;-75
2023/04/30 12:33:55;;;;;;;8.77;5.70;;;;;;;;;;10052775;28;20053;-76
2023/04/30 12:38:48;;;;;;;5.70;5.05;;;;;;;;;;10042016;28;20108;-73
2023/04/30 12:43:42;;;;;;;8.75;5.80;;;;;;;;;;10053864;28;20057;-74
2023/04/30 12:48:45;;;;;;;7.13;6.47;;;;;;;;;;10045178;28;20092;-76
2023/04/30 12:54:01;;;;;;;11.77;6.55;;;;;;;;;;10037061;28;20050;-74
2023/04/30 12:58:55;;;;;;;8.13;6.75;;;;;;;;;;10024973;28;20041;-75
2023/04/30 13:03:48;;;;;;;9.23;5.53;;;;;;;;;;10027636;28;21978;-74
2023/04/30 13:08:42;;;;;;;10.00;6.05;;;;;;;;;;10026951;28;20436;-76
2023/04/30 13:13:41;;;;;;;11.02;5.97;;;;;;;;;;10027922;28;20449;-75
2023/04/30 13:18:35;;;;;;;8.10;5.78;;;;;;;;;;10033614;28;20050;-75
2023/04/30 13:23:29;;;;;;;12.15;6.28;;;;;;;;;;10024557;28;20076;-76
2023/04/30 13:28:30;;;;;;;6.60;5.38;;;;;;;;;;10026286;28;20054;-76
2023/04/30 13:33:23;;;;;;;7.78;5.90;;;;;;;;;;10050839;28;20046;-76
2023/04/30 13:38:17;;;;;;;4.80;3.88;;;;;;;;;;10047102;28;20053;-76
2023/04/30 13:43:12;;;;;;;4.30;3.90;;;;;;;;;;10029697;28;20062;-75
2023/04/30 13:48:07;;;;;;;6.75;4.13;;;;;;;;;;10033582;28;20049;-76
2023/04/30 13:53:01;;;;;;;5.85;4.35;;;;;;;;;;10035701;28;20390;-76
2023/04/30 13:57:56;;;;;;;10.43;5.43;;;;;;;;;;10055821;28;20053;-76
2023/04/30 14:02:50;;;;;;;7.22;4.75;;;;;;;;;;10047777;28;20086;-77
2023/04/30 14:07:45;;;;;;;5.57;3.75;;;;;;;;;;10033658;28;20132;-76
2023/04/30 14:12:38;;;;;;;4.20;2.78;;;;;;;;;;10053304;28;20065;-74
2023/04/30 14:17:32;;;;;;;3.95;2.72;;;;;;;;;;10055997;28;20089;-75
2023/04/30 14:22:26;;;;;;;5.03;3.05;;;;;;;;;;10031425;28;20057;-75
2023/04/30 14:27:20;;;;;;;2.90;2.38;;;;;;;;;;10029706;28;20054;-76
2023/04/30 14:32:14;;;;;;;5.40;3.10;;;;;;;;;;10040841;28;20542;-75
2023/04/30 14:37:07;;;;;;;3.95;2.80;;;;;;;;;;10036914;28;20058;-75
2023/04/30 14:42:02;;;;;;;4.00;3.20;;;;;;;;;;10035518;28;20058;-74
2023/04/30 14:46:55;;;;;;;4.03;3.25;;;;;;;;;;10044382;28;20057;-74
2023/04/30 14:51:49;;;;;;;3.97;3.58;;;;;;;;;;10043382;28;20071;-74
2023/04/30 14:56:43;;;;;;;3.75;3.30;;;;;;;;;;10041348;28;20073;-66
2023/04/30 15:01:36;;;;;;;6.40;3.20;;;;;;;;;;10032943;28;20050;-63
2023/04/30 15:06:30;;;;;;;4.40;2.90;;;;;;;;;;10024763;28;20496;-63
2023/04/30 15:11:24;;;;;;;5.53;3.42;;;;;;;;;;10042148;28;20140;-63
2023/04/30 15:16:18;;;;;;;6.45;3.78;;;;;;;;;;10050293;28;20057;-62
2023/04/30 15:21:12;;;;;;;6.05;3.42;;;;;;;;;;10043441;28;20066;-62
2023/04/30 15:26:05;;;;;;;6.43;3.10;;;;;;;;;;10056190;28;20479;-62
2023/04/30 15:31:03;;;;;;;4.53;3.58;;;;;;;;;;10045242;28;20049;-62
2023/04/30 15:35:56;;;;;;;7.20;3.60;;;;;;;;;;10047593;28;20049;-62
2023/04/30 15:40:50;;;;;;;7.00;3.67;;;;;;;;;;10049836;28;20504;-62
2023/04/30 15:45:45;;;;;;;5.50;3.42;;;;;;;;;;10050735;28;20061;-65
2023/04/30 15:50:39;;;;;;;3.63;3.33;;;;;;;;;;10047158;28;20057;-64
2023/04/30 15:55:33;;;;;;;4.70;3.63;;;;;;;;;;10048626;28;20137;-65
2023/04/30 16:00:28;;;;;;;4.00;3.60;;;;;;;;;;10042977;28;20065;-66
2023/04/30 16:05:21;;;;;;;6.15;3.63;;;;;;;;;;10049031;28;20145;-66
2023/04/30 16:10:14;;;;;;;3.65;3.35;;;;;;;;;;10043894;28;20064;-65
2023/04/30 16:15:09;;;;;;;4.60;3.63;;;;;;;;;;10046307;28;20054;-64
2023/04/30 16:20:02;;;;;;;6.35;3.97;;;;;;;;;;10047986;28;20485;-67
2023/04/30 16:24:55;;;;;;;3.92;3.45;;;;;;;;;;10051826;28;20073;-69
2023/04/30 16:29:48;;;;;;;6.35;3.75;;;;;;;;;;10044952;28;20049;-69
2023/04/30 16:34:43;;;;;;;4.75;3.17;;;;;;;;;;10048536;28;20051;-68
2023/04/30 16:39:36;;;;;;;4.57;3.35;;;;;;;;;;10051478;28;20486;-66
2023/04/30 16:44:29;;;;;;;6.78;3.20;;;;;;;;;;10035326;28;20054;-67
2023/04/30 16:49:22;;;;;;;4.50;3.50;;;;;;;;;;10048281;28;20057;-63
2023/04/30 16:54:15;;;;;;;4.75;3.20;;;;;;;;;;10063325;28;20531;-63
2023/04/30 16:59:09;;;;;;;5.75;3.60;;;;;;;;;;10038412;28;20436;-62
2023/04/30 17:04:03;;;;;;;6.13;3.47;;;;;;;;;;10027869;28;20483;-62
2023/04/30 17:08:58;;;;;;;4.88;3.20;;;;;;;;;;10034216;28;21541;-62
2023/04/30 17:13:53;;;;;;;4.57;3.28;;;;;;;;;;10034368;28;20049;-62
2023/04/30 17:18:47;;;;;;;4.93;3.65;;;;;;;;;;10031365;28;20396;-64
2023/04/30 17:23:41;;;;;;;5.80;4.00;;;;;;;;;;10034384;28;20045;-66
2023/04/30 17:28:36;;;;;;;7.45;4.07;;;;;;;;;;10054861;28;20053;-64
2023/04/30 17:33:29;;;;;;;4.55;3.83;;;;;;;;;;10052776;28;20077;-64
2023/04/30 17:38:22;;;;;;;5.18;3.55;;;;;;;;;;10033793;28;20061;-64
2023/04/30 17:43:16;;;;;;;4.38;3.92;;;;;;;;;;10039811;28;20058;-64
2023/04/30 17:48:09;;;;;;;7.40;4.50;;;;;;;;;;10032158;28;20057;-65
2023/04/30 17:53:03;;;;;;;6.90;4.28;;;;;;;;;;10031758;28;20483;-64
2023/04/30 17:57:58;;;;;;;7.13;4.05;;;;;;;;;;10033157;28;20045;-65
2023/04/30 18:02:50;;;;;;;12.98;4.75;;;;;;;;;;10031860;28;20137;-64
2023/04/30 18:07:44;;;;;;;4.70;4.28;;;;;;;;;;10031376;28;20544;-64
2023/04/30 18:12:38;;;;;;;4.18;3.88;;;;;;;;;;10047110;28;20103;-67
2023/04/30 18:17:31;;;;;;;5.25;3.67;;;;;;;;;;10039430;28;20081;-65
2023/04/30 18:22:28;;;;;;;4.72;3.47;;;;;;;;;;10039218;28;20020;-63
2023/04/30 18:27:22;;;;;;;3.75;3.40;;;;;;;;;;10042870;28;20394;-64
2023/04/30 18:32:15;;;;;;;5.47;3.38;;;;;;;;;;10048874;28;20077;-64
2023/04/30 18:37:09;;;;;;;3.95;3.38;;;;;;;;;;10042941;28;21012;-62
2023/04/30 18:42:03;;;;;;;2.83;2.60;;;;;;;;;;10029612;28;20050;-63
2023/04/30 18:46:56;;;;;;;6.28;3.60;;;;;;;;;;10043118;28;20046;-63
2023/04/30 18:51:50;;;;;;;4.30;3.30;;;;;;;;;;10039807;28;20045;-64
2023/04/30 18:56:44;;;;;;;5.50;3.65;;;;;;;;;;10032443;28;20158;-64
2023/04/30 19:01:41;;;;;;;4.03;3.13;;;;;;;;;;10033692;28;20445;-64
2023/04/30 19:06:34;;;;;;;6.50;3.63;;;;;;;;;;10034735;28;20057;-64
2023/04/30 19:11:29;;;;;;;3.60;3.25;;;;;;;;;;10038913;28;20049;-65
2023/04/30 19:16:24;;;;;;;4.47;4.00;;;;;;;;;;10035505;28;20512;-66
2023/04/30 19:21:18;;;;;;;4.20;3.80;;;;;;;;;;10051695;28;20424;-65
2023/04/30 19:26:11;;;;;;;4.65;3.10;;;;;;;;;;10051358;28;20049;-65
2023/04/30 19:31:05;;;;;;;6.30;3.67;;;;;;;;;;10046345;28;20049;-65
2023/04/30 19:35:58;;;;;;;5.30;3.45;;;;;;;;;;10049408;28;20054;-66
2023/04/30 19:40:55;;;;;;;4.78;3.72;;;;;;;;;;10048892;28;20052;-69
2023/04/30 19:45:57;;;;;;;4.10;3.60;;;;;;;;;;10047039;28;20057;-68
2023/04/30 19:50:54;;;;;;;3.70;3.00;;;;;;;;;;10046780;28;20042;-69
2023/04/30 19:55:46;;;;;;;4.78;4.10;;;;;;;;;;10044238;28;20060;-69
2023/04/30 20:00:43;;;;;;;6.45;3.42;;;;;;;;;;10041917;28;20050;-72
2023/04/30 20:05:38;;;;;;;6.82;4.70;;;;;;;;;;10043974;28;20071;-68
2023/04/30 20:10:35;;;;;;;8.15;4.93;;;;;;;;;;10039405;28;20084;-68
2023/04/30 20:15:28;;;;;;;5.20;4.22;;;;;;;;;;10043213;28;20054;-68
2023/04/30 20:20:23;;;;;;;5.22;4.18;;;;;;;;;;10055620;28;20111;-75
2023/04/30 20:25:17;;;;;;;6.00;4.50;;;;;;;;;;10045240;28;20045;-68
2023/04/30 20:30:12;;;;;;;8.00;4.88;;;;;;;;;;10039493;28;20096;-68
2023/04/30 20:35:09;;;;;;;7.05;4.35;;;;;;;;;;10050513;28;20141;-68
2023/04/30 20:40:06;;;;;;;5.75;4.47;;;;;;;;;;10044511;28;20057;-69
2023/04/30 20:45:01;;;;;;;5.43;4.00;;;;;;;;;;10042196;28;20041;-68
2023/04/30 20:49:58;;;;;;;5.43;4.32;;;;;;;;;;10039037;28;20062;-68
2023/04/30 20:54:53;;;;;;;6.57;4.40;;;;;;;;;;10039984;28;20088;-67
2023/04/30 20:59:49;;;;;;;8.18;4.55;;;;;;;;;;10038912;28;20058;-69
2023/04/30 21:04:42;;;;;;;5.63;4.72;;;;;;;;;;10049348;28;20505;-69
2023/04/30 21:09:37;;;;;;;4.50;4.10;;;;;;;;;;10040706;28;20129;-70
2023/04/30 21:14:31;;;;;;;8.77;4.88;;;;;;;;;;10046925;28;20145;-70
2023/04/30 21:19:25;;;;;;;8.60;4.65;;;;;;;;;;10047957;28;20049;-70
2023/04/30 21:24:20;;;;;;;5.43;4.93;;;;;;;;;;10042481;28;20142;-69
2023/04/30 21:29:14;;;;;;;7.07;5.60;;;;;;;;;;10046645;28;20149;-70
2023/04/30 21:34:08;;;;;;;6.25;4.97;;;;;;;;;;10046034;28;20446;-69
2023/04/30 21:39:02;;;;;;;5.20;4.75;;;;;;;;;;10041950;28;20424;-70
2023/04/30 21:43:57;;;;;;;6.75;4.85;;;;;;;;;;10045688;28;20057;-69
2023/04/30 21:48:50;;;;;;;7.72;5.30;;;;;;;;;;10041892;28;20053;-69
2023/04/30 21:53:44;;;;;;;6.35;5.68;;;;;;;;;;10036092;28;20053;-69
2023/04/30 21:58:38;;;;;;;7.05;6.20;;;;;;;;;;10046599;28;20505;-68
2023/04/30 22:03:32;;;;;;;7.72;5.70;;;;;;;;;;10030603;28;20053;-68
2023/04/30 22:08:26;;;;;;;9.35;6.22;;;;;;;;;;10034363;28;20057;-68
2023/04/30 22:13:21;;;;;;;7.78;5.90;;;;;;;;;;10031502;28;20041;-69
2023/04/30 22:18:16;;;;;;;11.70;6.95;;;;;;;;;;10029726;28;20042;-69
2023/04/30 22:23:10;;;;;;;7.22;6.53;;;;;;;;;;10045400;28;20466;-68
2023/04/30 22:28:05;;;;;;;8.63;6.78;;;;;;;;;;10054053;28;20045;-69
2023/04/30 22:32:58;;;;;;;8.25;7.45;;;;;;;;;;10061661;28;20049;-69
2023/04/30 22:37:51;;;;;;;7.38;6.65;;;;;;;;;;10047155;28;20073;-69
2023/04/30 22:42:46;;;;;;;8.73;7.28;;;;;;;;;;10063773;28;20061;-69
2023/04/30 22:47:40;;;;;;;9.82;7.03;;;;;;;;;;10054315;28;20040;-68
2023/04/30 22:52:33;;;;;;;8.00;7.13;;;;;;;;;;10058302;28;20057;-68
2023/04/30 22:57:28;;;;;;;7.82;7.13;;;;;;;;;;10061132;28;20493;-69
2023/04/30 23:02:21;;;;;;;7.20;6.60;;;;;;;;;;10059877;28;20100;-69
2023/04/30 23:07:15;;;;;;;8.98;7.82;;;;;;;;;;10054242;28;20076;-69
2023/04/30 23:12:09;;;;;;;8.70;7.80;;;;;;;;;;10037248;28;20045;-69
2023/04/30 23:17:02;;;;;;;8.93;8.02;;;;;;;;;;10041835;28;20492;-69
2023/04/30 23:21:56;;;;;;;9.50;8.48;;;;;;;;;;10049560;28;20073;-68
2023/04/30 23:26:50;;;;;;;9.48;8.10;;;;;;;;;;10029300;28;20084;-68
2023/04/30 23:31:43;;;;;;;12.15;8.75;;;;;;;;;;10051824;28;20058;-69
2023/04/30 23:36:37;;;;;;;9.95;8.95;;;;;;;;;;10065123;28;20049;-69
2023/04/30 23:41:31;;;;;;;10.18;9.18;;;;;;;;;;10038932;28;20077;-68
2023/04/30 23:46:25;;;;;;;13.65;11.00;;;;;;;;;;10063521;28;20057;-68
2023/04/30 23:51:20;;;;;;;13.77;9.93;;;;;;;;;;10045164;28;20095;-69
2023/04/30 23:56:13;;;;;;;15.82;11.73;;;;;;;;;;10038632;28;20067;-69
